Station: Bundaberg  

  Atmospheric Gas Attenuation - ITU Rec 676-11   ----------------- dB/100km -----------------
Date Time Temp RH % AH g/m3 Dew Point Wind Direction Speed kph Gust kph Barometer mB Rainfall Since 9am 24GHz 47GHz 76GHz 122GHz 134GHz 241GHz
08/05 12:40 22.3 38 7.5 7.3 9 17 1018.4 0 16.9 22.2 32.2 84.1 76.0 260.9
08/05 12:30 21.7 37 7.06 6.4 15 26 1018.5 0 16.0 21.7 30.9 80.7 71.6 245.3
08/05 12:20 21.5 38 7.16 6.6 13 17 1018.7 0 16.2 21.9 31.3 81.8 72.9 249.9
08/05 12:10 21.5 36 6.79 5.8 15 17 1018.8 0 15.4 21.4 30.0 78.4 68.7 235.3
08/05 12:00 21.2 39 7.23 6.7 17 30 1018.8 0 16.4 22.1 31.7 82.7 73.9 253.6
08/05 11:50 20.7 37 6.66 5.5 15 17 1019.1 0 15.2 21.4 29.9 78.0 68.0 232.5
08/05 11:40 20.8 37 6.7 5.6 17 20 1019.2 0 15.3 21.4 30.0 78.3 68.3 233.8
08/05 11:30 20.4 36 6.37 4.8 17 28 1019.3 0 14.6 21.1 29.0 75.7 65.0 222.0
08/05 11:20 20.2 35 6.12 4.3 19 24 1019.6 0 14.1 20.8 28.3 73.6 62.4 212.8
08/05 11:10 20.2 34 5.94 3.9 20 24 1019.9 0 13.7 20.6 27.7 72.1 60.4 205.8
08/05 11:00 20.1 36 6.26 4.6 17 30 1019.9 0 14.4 21.0 28.8 75.0 64.0 218.6
08/05 10:50 19.5 35 5.87 3.6 15 17 1020.1 0 13.6 20.6 27.7 72.1 60.1 204.9
08/05 10:40 19 34 5.54 2.8 20 26 1020.4 0 12.9 20.3 26.8 69.6 56.9 193.3
08/05 10:30 19.2 33 5.44 2.6 20 30 1020.5 0 12.7 20.1 26.4 68.5 55.6 189.0
08/05 10:20 19 33 5.38 2.4 19 20 1020.6 0 12.6 20.1 26.2 68.2 55.1 187.2
08/05 10:10 18.1 32 4.94 1.2 20 24 1020.6 0 11.7 19.7 25.1 65.0 50.9 172.3
08/05 10:00 18.5 34 5.38 2.4 20 28 1020.5 0 12.6 20.2 26.4 68.6 55.5 188.3
08/05 09:50 17.7 31 4.68 0.4 19 20 1020.7 0 11.2 19.4 24.3 63.0 48.3 163.2
08/05 09:40 17.8 33 5.01 1.3 20 24 1020.8 0 11.8 19.9 25.4 65.9 51.9 175.6
08/05 09:30 16.8 32 4.57 0 20 32 1020.7 0 10.9 19.5 24.2 62.7 47.7 160.7
08/05 09:20 16.6 32 4.52 -0.1 24 28 1020.7 0 10.8 19.4 24.1 62.5 47.2 159.2
08/05 09:10 16.6 33 4.66 0.3 20 28 1020.7 0 11.1 19.6 24.6 63.7 48.8 164.6
08/05 09:00 16.1 34 4.66 0.3 20 30 1020.5 0 11.2 19.7 24.7 64.1 49.1 165.5
08/05 08:50 15.7 34 4.55 -0.1 20 26 1020.9 0 10.9 19.7 24.5 63.4 48.1 162.1
08/05 08:40 15.3 35 4.57 -0.1 24 30 1020.9 0 11.0 19.8 24.7 63.9 48.6 163.7
08/05 08:30 14.9 36 4.59 0 24 35 1020.5 0 11.0 19.9 24.8 64.4 49.0 165.2
08/05 08:20 14.8 38 4.81 0.6 20 32 1020.8 0 11.5 20.2 25.6 66.5 51.5 174.1
08/05 08:10 14.4 39 4.82 0.6 20 28 1020.6 0 11.5 20.3 25.8 66.9 51.9 175.4
08/05 08:00 14.4 41 5.07 1.3 20 30 1020.4 0 12.1 20.7 26.6 69.2 54.7 185.4
08/05 07:50 14.1 41 4.98 1.1 22 28 1020.3 0 11.9 20.6 26.4 68.6 53.9 182.4
08/05 07:40 14 42 5.07 1.3 22 26 1020.2 0 12.1 20.7 26.8 69.5 55.0 186.2
08/05 07:30 13.9 43 5.16 1.5 19 26 1019.9 0 12.3 20.9 27.1 70.4 56.1 190.1
08/05 07:20 13.7 43 5.09 1.4 20 26 1020.1 0 12.1 20.8 26.9 69.9 55.4 187.7
08/05 07:10 13.5 42 4.91 0.9 19 26 1020.1 0 11.8 20.6 26.4 68.4 53.5 180.8
08/05 07:00 13.4 43 5 1.1 17 24 1019.8 0 12.0 20.8 26.7 69.3 54.6 184.7
08/05 06:50 13.4 44 5.12 1.4 19 24 1019.8 0 12.2 20.9 27.1 70.5 56.0 189.6
08/05 06:40 13.1 46 5.25 1.8 19 22 1019.5 0 12.5 21.2 27.7 71.9 57.7 195.6
08/05 06:30 12.9 50 5.64 2.7 17 22 1019.4 0 13.3 21.8 29.1 75.8 62.5 212.3
08/05 06:20 13.1 51 5.82 3.2 15 17 1019.5 0 13.7 22.0 29.7 77.4 64.5 219.4
08/05 06:10 13.3 54 6.24 4.2 19 22 1019.3 0 14.6 22.6 31.2 81.3 69.4 236.6
08/05 06:00 13.3 56 6.47 4.7 17 24 1019.2 0 15.1 22.9 32.0 83.6 72.2 246.5
08/05 05:50 13.3 58 6.7 5.2 17 19 1019.2 0 15.6 23.3 32.9 85.9 75.0 256.5
08/05 05:40 13.6 58 6.83 5.5 17 22 1019.3 0 15.8 23.4 33.3 86.9 76.4 261.2
08/05 05:30 13.9 59 7.07 6 17 24 1018.9 0 16.3 23.7 34.0 88.9 79.0 270.6
08/05 05:20 13.8 60 7.15 6.2 17 20 1019 0 16.5 23.8 34.4 89.9 80.2 274.5
08/05 05:10 14.2 59 7.2 6.3 17 20 1018.9 0 16.6 23.8 34.4 89.9 80.4 275.3
08/05 05:00 14.3 58 7.13 6.2 15 22 1018.6 0 16.4 23.6 34.1 89.1 79.4 271.8
08/05 04:50 14.3 59 7.25 6.4 15 17 1018.6 0 16.7 23.8 34.5 90.3 80.9 277.1
08/05 04:40 14.4 59 7.29 6.5 17 19 1018.4 0 16.8 23.9 34.6 90.6 81.3 278.4
08/05 04:30 14.5 59 7.34 6.6 13 17 1018.2 0 16.9 23.9 34.8 90.9 81.8 280.2
08/05 04:20 14.3 59 7.25 6.4 11 13 1018.3 0 16.7 23.8 34.5 90.3 80.8 277.0
08/05 04:10 15 57 7.31 6.6 13 15 1018.1 0 16.8 23.7 34.4 90.1 80.9 277.2
08/05 04:00 15.1 57 7.35 6.7 13 19 1017.9 0 16.9 23.7 34.5 90.3 81.2 278.5
08/05 03:50 15.2 56 7.27 6.5 11 15 1018.1 0 16.7 23.6 34.2 89.4 80.2 274.7
08/05 03:40 15.1 57 7.35 6.7 15 17 1017.9 0 16.9 23.7 34.5 90.3 81.2 278.5
08/05 03:30 15.1 57 7.35 6.7 13 17 1017.7 0 16.9 23.7 34.5 90.3 81.2 278.5
08/05 03:20 15.4 55 7.23 6.4 13 17 1017.7 0 16.6 23.5 33.9 88.8 79.4 272.2
08/05 03:10 15.5 54 7.14 6.2 11 15 1017.6 0 16.4 23.3 33.6 87.8 78.2 268.0
08/05 03:00 15.7 54 7.22 6.4 15 20 1017.3 0 16.6 23.4 33.8 88.3 79.0 270.7
08/05 02:50 15.9 53 7.18 6.3 13 17 1017.4 0 16.5 23.3 33.5 87.7 78.3 268.3
08/05 02:40 15.9 53 7.18 6.3 13 17 1017.4 0 16.5 23.3 33.5 87.7 78.3 268.3
08/05 02:30 16.2 52 7.17 6.3 15 24 1017.4 0 16.4 23.2 33.4 87.3 77.9 266.9
08/05 02:20 16.1 53 7.26 6.5 11 15 1017.5 0 16.6 23.3 33.8 88.3 79.1 271.1
08/05 02:10 16.3 52 7.21 6.4 15 17 1017.6 0 16.5 23.2 33.5 87.6 78.3 268.3
08/05 02:00 16.5 51 7.16 6.3 15 22 1017.5 0 16.4 23.1 33.2 86.9 77.5 265.5
08/05 01:50 16.7 50 7.11 6.2 13 17 1017.6 0 16.3 23.0 33.0 86.2 76.7 262.8
08/05 01:40 16.8 49 7.01 6 13 20 1017.6 0 16.1 22.8 32.6 85.1 75.4 258.2
08/05 01:30 17 49 7.09 6.2 17 26 1017.4 0 16.2 22.9 32.8 85.6 76.2 260.9
08/05 01:20 17.1 49 7.13 6.3 17 20 1017.6 0 16.3 22.9 32.9 85.9 76.5 262.3
08/05 01:10 17.1 49 7.13 6.3 15 19 1017.7 0 16.3 22.9 32.9 85.9 76.6 262.3
08/05 01:00 17 51 7.38 6.8 17 24 1017.5 0 16.9 23.3 33.8 88.5 79.7 273.2
08/05 00:50 17.2 51 7.47 7 11 13 1017.7 0 17.0 23.4 34.1 89.2 80.6 276.4
08/05 00:40 17.7 50 7.54 7.2 17 19 1017.7 0 17.2 23.3 34.1 89.3 80.9 277.6
08/05 00:30 17.9 50 7.63 7.3 11 17 1017.6 0 17.3 23.4 34.4 89.9 81.8 280.7
08/05 00:20 18.1 50 7.72 7.5 13 15 1017.6 0 17.5 23.5 34.6 90.6 82.7 283.8
08/05 00:10 18.2 49 7.62 7.3 15 15 1017.6 0 17.3 23.3 34.2 89.5 81.3 279.3
08/05 00:00 18.5 49 7.75 7.6 15 20 1017.5 0 17.6 23.4 34.5 90.4 82.6 283.7
07/05 23:50 18.7 48 7.68 7.5 11 15 1017.5 0 17.4 23.3 34.2 89.5 81.5 280.0
07/05 23:40 18.8 49 7.89 7.9 13 15 1017.5 0 17.8 23.6 34.9 91.5 84.0 288.5
07/05 23:30 18.3 52 8.13 8.3 13 17 1017.3 0 18.4 24.1 36.0 94.4 87.4 300.5
07/05 23:20 18.6 51 8.12 8.3 11 13 1017.4 0 18.3 24.0 35.9 93.9 87.0 299.0
07/05 23:10 18.7 51 8.16 8.4 11 13 1017.4 0 18.4 24.0 36.0 94.2 87.3 300.3
07/05 23:00 18.8 51 8.21 8.5 9 15 1017.4 0 18.5 24.1 36.1 94.6 87.8 302.1
07/05 22:50 19.1 51 8.36 8.7 9 11 1017.5 0 18.8 24.2 36.5 95.7 89.3 307.4
07/05 22:40 19.4 49 8.17 8.4 9 11 1017.3 0 18.4 23.8 35.7 93.5 86.7 298.1
07/05 22:30 20.1 48 8.34 8.8 13 17 1017.2 0 18.7 23.9 36.0 94.3 88.0 302.7
07/05 22:20 20.5 46 8.18 8.5 13 13 1017.3 0 18.4 23.6 35.2 92.3 85.6 294.5
07/05 22:10 20.3 47 8.27 8.6 15 15 1017.3 0 18.6 23.7 35.7 93.4 86.9 299.0
07/05 22:00 20.5 47 8.36 8.8 13 20 1017.3 0 18.8 23.8 35.9 94.1 87.8 302.1
07/05 21:50 20.8 47 8.51 9.1 13 15 1017.5 0 19.1 24.0 36.3 95.2 89.2 307.3
07/05 21:40 20.5 48 8.54 9.1 13 17 1017.5 0 19.1 24.1 36.6 95.9 89.9 309.7
07/05 21:30 20.6 49 8.77 9.5 13 19 1017.4 0 19.6 24.4 37.4 98.0 92.6 319.0
07/05 21:20 20.5 50 8.9 9.7 13 15 1017.5 0 19.9 24.6 37.9 99.4 94.3 325.0
07/05 21:10 20 53 9.16 10.1 15 17 1017.5 0 20.5 25.2 39.1 102.6 98.1 338.3
07/05 21:00 20.1 53 9.21 10.2 9 13 1017.4 0 20.6 25.2 39.2 103.0 98.6 340.0
07/05 20:50 20.7 51 9.18 10.2 9 11 1017.4 0 20.5 25.0 38.8 101.9 97.5 336.2
07/05 20:40 21 51 9.34 10.5 13 15 1017.3 0 20.8 25.2 39.3 103.1 99.1 341.8
07/05 20:30 21.1 51 9.4 10.6 13 17 1017.1 0 20.9 25.2 39.5 103.6 99.7 343.9
07/05 20:20 21.4 51 9.56 10.9 13 13 1017.1 0 21.2 25.4 39.9 104.8 101.3 349.5
07/05 20:10 21.6 51 9.67 11 11 13 1017 0 21.5 25.5 40.2 105.6 102.4 353.4

Last Refresh: 08-May-2026 12:10:20

Bureau of Meteorology